Portada
METAR-TAF:

METAR-TAF

Aeroports :

Uzhhorod, Ucraïna

latitud: 48-38-05N, longitud: 022-15-53E, altitud: 117 m

Observació

L'informe es va fer fa 2 hores i 7 minuts, a les 13:00 UTC
Vent 2 kt del Oest
Temperatura 30°C
Humitat 43%
Pressió 1016 hPa
Visibilitat 10 km o més

METAR: UKLU 181300Z 28001MPS 9999 NSC 30/16 Q1016 R10/090070 NOSIG

Hora: 18:07 (15:07 UTC)

Pronòstic

L'informe es va fer fa 4 hores i 7 minuts, a les 11:00 UTC
Pronòstic vàlid del 18 a les 12 UTC al 18 a les 21 UTC
Vent 2 kt amb direcció variable
Visibilitat 10 km o més

TAF: UKLU 181100Z 1812/1821 VRB01MPS 9999 NSC TX31/1815Z TN21/1821Z

Observacions i pronòstics meteorològics de més de 4000 aeroports (METAR i TAF).

Les estacions disponibles són els punts grocs i vermells al mapa.

Posi el ratolí al punt desitjat per veure el nom de l'estació.

Feu clic per veure les observacions i els pronòstics meteorològics.

Per canviar el mapa: feu clic els botons verds amb una creu de color negre per apropar; al botó verd amb un guió per allunyar la imatge; o en les fletxes verdes per a mapes adjacents.


METAR-TAF: